sensor_id;sensor_type;location;lat;lon;timestamp;P1;durP1;ratioP1;P2;durP2;ratioP2
72611;SDS011;60655;52.182;4.474;2023-03-19T00:01:16;17.25;;;10.80;;
72611;SDS011;60655;52.182;4.474;2023-03-19T00:03:17;17.58;;;9.45;;
72611;SDS011;60655;52.182;4.474;2023-03-19T00:05:18;11.82;;;7.10;;
72611;SDS011;60655;52.182;4.474;2023-03-19T00:07:19;16.30;;;8.65;;
72611;SDS011;60655;52.182;4.474;2023-03-19T00:09:20;13.52;;;7.57;;
72611;SDS011;60655;52.182;4.474;2023-03-19T00:11:21;16.60;;;9.88;;
72611;SDS011;60655;52.182;4.474;2023-03-19T00:13:22;13.75;;;7.43;;
72611;SDS011;60655;52.182;4.474;2023-03-19T00:15:23;17.35;;;9.18;;
72611;SDS011;60655;52.182;4.474;2023-03-19T00:17:24;17.23;;;10.48;;
72611;SDS011;60655;52.182;4.474;2023-03-19T00:19:25;17.38;;;10.75;;
72611;SDS011;60655;52.182;4.474;2023-03-19T00:21:26;18.17;;;9.75;;
72611;SDS011;60655;52.182;4.474;2023-03-19T00:23:27;21.42;;;11.15;;
72611;SDS011;60655;52.182;4.474;2023-03-19T00:25:28;18.95;;;11.15;;
72611;SDS011;60655;52.182;4.474;2023-03-19T00:27:29;14.73;;;9.10;;
72611;SDS011;60655;52.182;4.474;2023-03-19T00:29:30;20.10;;;11.85;;
72611;SDS011;60655;52.182;4.474;2023-03-19T00:31:31;23.85;;;12.55;;
72611;SDS011;60655;52.182;4.474;2023-03-19T00:33:32;18.73;;;11.10;;
72611;SDS011;60655;52.182;4.474;2023-03-19T00:35:33;19.52;;;11.20;;
72611;SDS011;60655;52.182;4.474;2023-03-19T00:37:34;23.90;;;11.60;;
72611;SDS011;60655;52.182;4.474;2023-03-19T00:39:36;19.02;;;10.38;;
72611;SDS011;60655;52.182;4.474;2023-03-19T00:41:37;22.60;;;11.82;;
72611;SDS011;60655;52.182;4.474;2023-03-19T00:43:49;18.63;;;10.30;;
72611;SDS011;60655;52.182;4.474;2023-03-19T00:45:53;21.63;;;11.60;;
72611;SDS011;60655;52.182;4.474;2023-03-19T00:47:54;22.25;;;13.13;;
72611;SDS011;60655;52.182;4.474;2023-03-19T00:49:55;22.08;;;12.10;;
72611;SDS011;60655;52.182;4.474;2023-03-19T00:51:56;20.23;;;11.10;;
72611;SDS011;60655;52.182;4.474;2023-03-19T00:53:57;23.00;;;13.48;;
72611;SDS011;60655;52.182;4.474;2023-03-19T00:55:58;23.70;;;12.82;;
72611;SDS011;60655;52.182;4.474;2023-03-19T00:57:59;24.30;;;13.70;;
72611;SDS011;60655;52.182;4.474;2023-03-19T01:00:00;24.25;;;13.45;;
72611;SDS011;60655;52.182;4.474;2023-03-19T01:02:01;22.00;;;12.48;;
72611;SDS011;60655;52.182;4.474;2023-03-19T01:04:03;21.98;;;11.32;;
72611;SDS011;60655;52.182;4.474;2023-03-19T01:06:04;24.10;;;11.95;;
72611;SDS011;60655;52.182;4.474;2023-03-19T01:08:06;24.92;;;13.35;;
72611;SDS011;60655;52.182;4.474;2023-03-19T01:10:07;20.08;;;11.50;;
72611;SDS011;60655;52.182;4.474;2023-03-19T01:12:09;23.27;;;10.68;;
72611;SDS011;60655;52.182;4.474;2023-03-19T01:14:10;18.08;;;8.77;;
72611;SDS011;60655;52.182;4.474;2023-03-19T01:16:12;21.45;;;10.48;;
72611;SDS011;60655;52.182;4.474;2023-03-19T01:18:13;17.63;;;9.50;;
72611;SDS011;60655;52.182;4.474;2023-03-19T01:20:14;19.38;;;9.77;;
72611;SDS011;60655;52.182;4.474;2023-03-19T01:22:18;20.65;;;9.70;;
72611;SDS011;60655;52.182;4.474;2023-03-19T01:24:19;18.75;;;8.13;;
72611;SDS011;60655;52.182;4.474;2023-03-19T01:26:20;22.20;;;10.25;;
72611;SDS011;60655;52.182;4.474;2023-03-19T01:28:21;20.95;;;8.57;;
72611;SDS011;60655;52.182;4.474;2023-03-19T01:30:22;19.33;;;8.95;;
72611;SDS011;60655;52.182;4.474;2023-03-19T01:32:23;16.77;;;8.75;;
72611;SDS011;60655;52.182;4.474;2023-03-19T01:34:24;18.02;;;7.28;;
72611;SDS011;60655;52.182;4.474;2023-03-19T01:36:26;19.70;;;8.32;;
72611;SDS011;60655;52.182;4.474;2023-03-19T01:38:27;18.90;;;8.70;;
72611;SDS011;60655;52.182;4.474;2023-03-19T01:40:28;16.83;;;7.18;;
72611;SDS011;60655;52.182;4.474;2023-03-19T01:42:31;15.02;;;6.50;;
72611;SDS011;60655;52.182;4.474;2023-03-19T01:44:33;16.45;;;7.20;;
72611;SDS011;60655;52.182;4.474;2023-03-19T01:46:36;17.33;;;6.60;;
72611;SDS011;60655;52.182;4.474;2023-03-19T01:48:42;13.90;;;6.07;;
72611;SDS011;60655;52.182;4.474;2023-03-19T01:50:46;12.10;;;5.18;;
72611;SDS011;60655;52.182;4.474;2023-03-19T01:52:50;12.70;;;4.57;;
72611;SDS011;60655;52.182;4.474;2023-03-19T01:54:51;15.98;;;5.13;;
72611;SDS011;60655;52.182;4.474;2023-03-19T01:56:58;11.63;;;4.47;;
72611;SDS011;60655;52.182;4.474;2023-03-19T02:04:09;11.35;;;4.90;;
72611;SDS011;60655;52.182;4.474;2023-03-19T02:06:10;12.02;;;3.78;;
72611;SDS011;60655;52.182;4.474;2023-03-19T02:08:13;12.07;;;4.70;;
72611;SDS011;60655;52.182;4.474;2023-03-19T02:10:16;9.90;;;4.07;;
72611;SDS011;60655;52.182;4.474;2023-03-19T02:12:20;12.10;;;4.40;;
72611;SDS011;60655;52.182;4.474;2023-03-19T02:14:21;12.68;;;5.40;;
72611;SDS011;60655;52.182;4.474;2023-03-19T02:16:22;14.57;;;5.97;;
72611;SDS011;60655;52.182;4.474;2023-03-19T02:18:24;14.63;;;5.18;;
72611;SDS011;60655;52.182;4.474;2023-03-19T02:20:26;12.60;;;4.97;;
72611;SDS011;60655;52.182;4.474;2023-03-19T02:25:00;16.33;;;6.63;;
72611;SDS011;60655;52.182;4.474;2023-03-19T02:27:05;13.40;;;5.05;;
72611;SDS011;60655;52.182;4.474;2023-03-19T02:29:08;13.02;;;5.18;;
72611;SDS011;60655;52.182;4.474;2023-03-19T02:31:10;13.70;;;6.07;;
72611;SDS011;60655;52.182;4.474;2023-03-19T02:33:12;13.55;;;5.43;;
72611;SDS011;60655;52.182;4.474;2023-03-19T02:35:15;14.48;;;6.47;;
72611;SDS011;60655;52.182;4.474;2023-03-19T02:37:18;16.52;;;6.70;;
72611;SDS011;60655;52.182;4.474;2023-03-19T02:39:25;17.75;;;7.00;;
72611;SDS011;60655;52.182;4.474;2023-03-19T02:43:57;19.40;;;7.38;;
72611;SDS011;60655;52.182;4.474;2023-03-19T02:46:02;21.92;;;8.32;;
72611;SDS011;60655;52.182;4.474;2023-03-19T02:48:04;16.20;;;7.20;;
72611;SDS011;60655;52.182;4.474;2023-03-19T02:50:07;20.25;;;8.15;;
72611;SDS011;60655;52.182;4.474;2023-03-19T02:52:09;19.00;;;8.45;;
72611;SDS011;60655;52.182;4.474;2023-03-19T02:54:10;21.73;;;9.07;;
72611;SDS011;60655;52.182;4.474;2023-03-19T02:56:11;20.92;;;9.35;;
72611;SDS011;60655;52.182;4.474;2023-03-19T02:58:12;22.67;;;10.20;;
72611;SDS011;60655;52.182;4.474;2023-03-19T03:00:13;21.73;;;10.48;;
72611;SDS011;60655;52.182;4.474;2023-03-19T03:02:16;21.50;;;10.15;;
72611;SDS011;60655;52.182;4.474;2023-03-19T03:04:17;22.10;;;10.05;;
72611;SDS011;60655;52.182;4.474;2023-03-19T03:06:18;25.60;;;11.13;;
72611;SDS011;60655;52.182;4.474;2023-03-19T03:08:19;23.90;;;11.70;;
72611;SDS011;60655;52.182;4.474;2023-03-19T03:10:20;24.80;;;11.10;;
72611;SDS011;60655;52.182;4.474;2023-03-19T03:12:21;24.35;;;11.23;;
72611;SDS011;60655;52.182;4.474;2023-03-19T03:14:22;22.52;;;11.35;;
72611;SDS011;60655;52.182;4.474;2023-03-19T03:16:24;19.80;;;9.32;;
72611;SDS011;60655;52.182;4.474;2023-03-19T03:18:25;27.00;;;11.32;;
72611;SDS011;60655;52.182;4.474;2023-03-19T03:20:26;26.08;;;11.25;;
72611;SDS011;60655;52.182;4.474;2023-03-19T03:22:27;27.67;;;12.25;;
72611;SDS011;60655;52.182;4.474;2023-03-19T03:24:28;26.83;;;11.32;;
72611;SDS011;60655;52.182;4.474;2023-03-19T03:26:29;26.27;;;11.48;;
72611;SDS011;60655;52.182;4.474;2023-03-19T03:28:30;27.48;;;12.00;;
72611;SDS011;60655;52.182;4.474;2023-03-19T03:30:32;29.13;;;14.13;;
72611;SDS011;60655;52.182;4.474;2023-03-19T03:32:33;29.92;;;13.13;;
72611;SDS011;60655;52.182;4.474;2023-03-19T03:34:35;30.35;;;14.63;;
72611;SDS011;60655;52.182;4.474;2023-03-19T03:36:36;30.50;;;13.77;;
72611;SDS011;60655;52.182;4.474;2023-03-19T03:38:37;27.40;;;12.32;;
72611;SDS011;60655;52.182;4.474;2023-03-19T03:40:38;32.40;;;15.00;;
72611;SDS011;60655;52.182;4.474;2023-03-19T03:42:39;30.48;;;13.88;;
72611;SDS011;60655;52.182;4.474;2023-03-19T03:44:40;33.53;;;15.60;;
72611;SDS011;60655;52.182;4.474;2023-03-19T03:46:41;32.80;;;14.52;;
72611;SDS011;60655;52.182;4.474;2023-03-19T03:48:42;31.55;;;13.95;;
72611;SDS011;60655;52.182;4.474;2023-03-19T03:50:43;35.22;;;14.05;;
72611;SDS011;60655;52.182;4.474;2023-03-19T03:52:45;32.10;;;14.48;;
72611;SDS011;60655;52.182;4.474;2023-03-19T03:54:47;33.80;;;13.75;;
72611;SDS011;60655;52.182;4.474;2023-03-19T03:56:48;31.73;;;13.20;;
72611;SDS011;60655;52.182;4.474;2023-03-19T03:58:50;28.80;;;12.45;;
72611;SDS011;60655;52.182;4.474;2023-03-19T04:00:51;31.25;;;14.45;;
72611;SDS011;60655;52.182;4.474;2023-03-19T04:02:52;32.03;;;13.57;;
72611;SDS011;60655;52.182;4.474;2023-03-19T04:04:53;35.50;;;14.65;;
72611;SDS011;60655;52.182;4.474;2023-03-19T04:06:54;29.23;;;13.60;;
72611;SDS011;60655;52.182;4.474;2023-03-19T04:08:55;30.90;;;12.70;;
72611;SDS011;60655;52.182;4.474;2023-03-19T04:10:56;27.88;;;13.15;;
72611;SDS011;60655;52.182;4.474;2023-03-19T04:12:57;27.30;;;12.02;;
72611;SDS011;60655;52.182;4.474;2023-03-19T04:14:58;30.17;;;12.75;;
72611;SDS011;60655;52.182;4.474;2023-03-19T04:17:00;32.85;;;14.82;;
72611;SDS011;60655;52.182;4.474;2023-03-19T04:19:01;36.42;;;14.32;;
72611;SDS011;60655;52.182;4.474;2023-03-19T04:21:03;36.08;;;15.93;;
72611;SDS011;60655;52.182;4.474;2023-03-19T04:23:05;35.58;;;15.05;;
72611;SDS011;60655;52.182;4.474;2023-03-19T04:25:06;39.00;;;15.18;;
72611;SDS011;60655;52.182;4.474;2023-03-19T04:27:10;39.10;;;16.98;;
72611;SDS011;60655;52.182;4.474;2023-03-19T04:29:11;42.13;;;16.58;;
72611;SDS011;60655;52.182;4.474;2023-03-19T04:31:12;43.55;;;16.67;;
72611;SDS011;60655;52.182;4.474;2023-03-19T04:33:13;39.42;;;16.10;;
72611;SDS011;60655;52.182;4.474;2023-03-19T04:35:14;44.38;;;16.85;;
72611;SDS011;60655;52.182;4.474;2023-03-19T04:37:15;33.38;;;13.57;;
72611;SDS011;60655;52.182;4.474;2023-03-19T04:39:16;42.33;;;17.70;;
72611;SDS011;60655;52.182;4.474;2023-03-19T04:41:18;35.28;;;14.23;;
72611;SDS011;60655;52.182;4.474;2023-03-19T04:43:19;40.60;;;16.05;;
72611;SDS011;60655;52.182;4.474;2023-03-19T04:45:21;37.53;;;15.20;;
72611;SDS011;60655;52.182;4.474;2023-03-19T04:47:22;38.53;;;15.88;;
72611;SDS011;60655;52.182;4.474;2023-03-19T04:49:23;41.33;;;16.00;;
72611;SDS011;60655;52.182;4.474;2023-03-19T04:51:25;44.25;;;16.52;;
72611;SDS011;60655;52.182;4.474;2023-03-19T04:53:27;44.03;;;17.70;;
72611;SDS011;60655;52.182;4.474;2023-03-19T04:55:29;38.22;;;13.73;;
72611;SDS011;60655;52.182;4.474;2023-03-19T04:57:30;40.60;;;15.43;;
72611;SDS011;60655;52.182;4.474;2023-03-19T04:59:31;42.00;;;15.88;;
72611;SDS011;60655;52.182;4.474;2023-03-19T05:01:32;41.83;;;16.90;;
72611;SDS011;60655;52.182;4.474;2023-03-19T05:03:33;34.72;;;15.00;;
72611;SDS011;60655;52.182;4.474;2023-03-19T05:05:34;38.83;;;14.25;;
72611;SDS011;60655;52.182;4.474;2023-03-19T05:07:36;42.00;;;16.05;;
72611;SDS011;60655;52.182;4.474;2023-03-19T05:09:37;38.83;;;16.58;;
72611;SDS011;60655;52.182;4.474;2023-03-19T05:11:38;40.60;;;15.68;;
72611;SDS011;60655;52.182;4.474;2023-03-19T05:13:39;37.70;;;14.20;;
72611;SDS011;60655;52.182;4.474;2023-03-19T05:15:41;41.92;;;16.25;;
72611;SDS011;60655;52.182;4.474;2023-03-19T05:17:45;41.92;;;17.55;;
72611;SDS011;60655;52.182;4.474;2023-03-19T05:19:50;41.35;;;16.08;;
72611;SDS011;60655;52.182;4.474;2023-03-19T05:21:52;42.17;;;14.88;;
72611;SDS011;60655;52.182;4.474;2023-03-19T05:23:53;34.38;;;13.88;;
72611;SDS011;60655;52.182;4.474;2023-03-19T05:25:56;37.85;;;14.15;;
72611;SDS011;60655;52.182;4.474;2023-03-19T05:27:58;44.33;;;15.40;;
72611;SDS011;60655;52.182;4.474;2023-03-19T05:29:59;43.45;;;15.05;;
72611;SDS011;60655;52.182;4.474;2023-03-19T05:32:00;44.38;;;15.60;;
72611;SDS011;60655;52.182;4.474;2023-03-19T05:34:03;52.88;;;15.48;;
72611;SDS011;60655;52.182;4.474;2023-03-19T05:36:04;40.63;;;14.02;;
72611;SDS011;60655;52.182;4.474;2023-03-19T05:38:05;43.25;;;14.27;;
72611;SDS011;60655;52.182;4.474;2023-03-19T05:40:07;49.30;;;16.27;;
72611;SDS011;60655;52.182;4.474;2023-03-19T05:42:09;46.55;;;15.48;;
72611;SDS011;60655;52.182;4.474;2023-03-19T05:44:10;49.28;;;15.05;;
72611;SDS011;60655;52.182;4.474;2023-03-19T05:46:11;51.20;;;15.40;;
72611;SDS011;60655;52.182;4.474;2023-03-19T05:48:12;49.70;;;16.48;;
72611;SDS011;60655;52.182;4.474;2023-03-19T05:50:14;44.33;;;15.43;;
72611;SDS011;60655;52.182;4.474;2023-03-19T05:52:16;45.90;;;14.48;;
72611;SDS011;60655;52.182;4.474;2023-03-19T05:54:17;49.25;;;15.23;;
72611;SDS011;60655;52.182;4.474;2023-03-19T05:56:18;33.33;;;11.20;;
72611;SDS011;60655;52.182;4.474;2023-03-19T05:58:19;34.25;;;12.27;;
72611;SDS011;60655;52.182;4.474;2023-03-19T06:00:20;27.27;;;10.50;;
72611;SDS011;60655;52.182;4.474;2023-03-19T06:02:21;32.03;;;11.20;;
72611;SDS011;60655;52.182;4.474;2023-03-19T06:04:22;32.03;;;12.10;;
72611;SDS011;60655;52.182;4.474;2023-03-19T06:06:23;30.27;;;11.25;;
72611;SDS011;60655;52.182;4.474;2023-03-19T06:08:24;36.28;;;14.02;;
72611;SDS011;60655;52.182;4.474;2023-03-19T06:10:25;33.63;;;12.25;;
72611;SDS011;60655;52.182;4.474;2023-03-19T06:12:26;37.28;;;13.13;;
72611;SDS011;60655;52.182;4.474;2023-03-19T06:14:27;40.13;;;15.45;;
72611;SDS011;60655;52.182;4.474;2023-03-19T06:16:29;43.67;;;14.68;;
72611;SDS011;60655;52.182;4.474;2023-03-19T06:18:30;44.28;;;14.40;;
72611;SDS011;60655;52.182;4.474;2023-03-19T06:20:31;46.63;;;15.60;;
72611;SDS011;60655;52.182;4.474;2023-03-19T06:22:32;47.28;;;16.27;;
72611;SDS011;60655;52.182;4.474;2023-03-19T06:24:33;43.65;;;14.82;;
72611;SDS011;60655;52.182;4.474;2023-03-19T06:26:34;44.97;;;14.10;;
72611;SDS011;60655;52.182;4.474;2023-03-19T06:28:36;46.28;;;14.85;;
72611;SDS011;60655;52.182;4.474;2023-03-19T06:30:37;49.60;;;16.70;;
72611;SDS011;60655;52.182;4.474;2023-03-19T06:32:39;51.08;;;16.77;;
72611;SDS011;60655;52.182;4.474;2023-03-19T06:34:40;57.70;;;16.38;;
72611;SDS011;60655;52.182;4.474;2023-03-19T06:36:41;50.50;;;17.45;;
72611;SDS011;60655;52.182;4.474;2023-03-19T06:38:42;52.13;;;17.00;;
72611;SDS011;60655;52.182;4.474;2023-03-19T06:42:44;45.15;;;14.23;;
72611;SDS011;60655;52.182;4.474;2023-03-19T06:45:06;54.03;;;15.73;;
72611;SDS011;60655;52.182;4.474;2023-03-19T06:47:08;46.97;;;14.55;;
72611;SDS011;60655;52.182;4.474;2023-03-19T06:49:09;47.30;;;15.32;;
72611;SDS011;60655;52.182;4.474;2023-03-19T06:51:10;59.75;;;18.20;;
72611;SDS011;60655;52.182;4.474;2023-03-19T06:53:11;48.53;;;14.73;;
72611;SDS011;60655;52.182;4.474;2023-03-19T06:55:13;58.28;;;17.98;;
72611;SDS011;60655;52.182;4.474;2023-03-19T06:57:14;57.40;;;17.35;;
72611;SDS011;60655;52.182;4.474;2023-03-19T06:59:15;42.17;;;13.40;;
72611;SDS011;60655;52.182;4.474;2023-03-19T07:01:17;52.03;;;15.68;;
72611;SDS011;60655;52.182;4.474;2023-03-19T07:03:18;52.90;;;16.80;;
72611;SDS011;60655;52.182;4.474;2023-03-19T07:05:19;57.33;;;16.35;;
72611;SDS011;60655;52.182;4.474;2023-03-19T07:07:20;50.35;;;15.13;;
72611;SDS011;60655;52.182;4.474;2023-03-19T07:09:21;56.90;;;15.98;;
72611;SDS011;60655;52.182;4.474;2023-03-19T07:11:23;51.92;;;16.40;;
72611;SDS011;60655;52.182;4.474;2023-03-19T07:13:24;48.25;;;15.55;;
72611;SDS011;60655;52.182;4.474;2023-03-19T07:15:25;50.10;;;14.88;;
72611;SDS011;60655;52.182;4.474;2023-03-19T07:17:26;59.97;;;17.23;;
72611;SDS011;60655;52.182;4.474;2023-03-19T07:19:27;55.40;;;15.73;;
72611;SDS011;60655;52.182;4.474;2023-03-19T07:21:28;55.38;;;17.00;;
72611;SDS011;60655;52.182;4.474;2023-03-19T07:23:29;60.38;;;18.05;;
72611;SDS011;60655;52.182;4.474;2023-03-19T07:25:30;50.03;;;15.23;;
72611;SDS011;60655;52.182;4.474;2023-03-19T07:27:31;62.03;;;17.73;;
72611;SDS011;60655;52.182;4.474;2023-03-19T07:29:32;63.85;;;16.67;;
72611;SDS011;60655;52.182;4.474;2023-03-19T07:31:33;53.30;;;15.55;;
72611;SDS011;60655;52.182;4.474;2023-03-19T07:33:34;60.85;;;15.93;;
72611;SDS011;60655;52.182;4.474;2023-03-19T07:35:35;58.85;;;16.45;;
72611;SDS011;60655;52.182;4.474;2023-03-19T07:37:36;65.57;;;16.52;;
72611;SDS011;60655;52.182;4.474;2023-03-19T07:39:37;55.10;;;15.60;;
72611;SDS011;60655;52.182;4.474;2023-03-19T07:41:38;54.67;;;15.25;;
72611;SDS011;60655;52.182;4.474;2023-03-19T07:43:39;62.70;;;17.08;;
72611;SDS011;60655;52.182;4.474;2023-03-19T07:45:40;53.38;;;16.30;;
72611;SDS011;60655;52.182;4.474;2023-03-19T07:47:41;56.20;;;15.32;;
72611;SDS011;60655;52.182;4.474;2023-03-19T07:49:42;62.55;;;15.73;;
72611;SDS011;60655;52.182;4.474;2023-03-19T07:51:43;54.00;;;16.20;;
72611;SDS011;60655;52.182;4.474;2023-03-19T07:53:44;56.92;;;15.18;;
72611;SDS011;60655;52.182;4.474;2023-03-19T07:55:46;54.25;;;16.52;;
72611;SDS011;60655;52.182;4.474;2023-03-19T07:57:47;60.67;;;16.38;;
72611;SDS011;60655;52.182;4.474;2023-03-19T07:59:48;64.28;;;17.13;;
72611;SDS011;60655;52.182;4.474;2023-03-19T08:01:49;64.10;;;15.75;;
72611;SDS011;60655;52.182;4.474;2023-03-19T08:03:50;54.53;;;14.38;;
72611;SDS011;60655;52.182;4.474;2023-03-19T08:05:51;58.53;;;15.90;;
72611;SDS011;60655;52.182;4.474;2023-03-19T08:07:52;61.95;;;16.08;;
72611;SDS011;60655;52.182;4.474;2023-03-19T08:09:53;66.28;;;18.02;;
72611;SDS011;60655;52.182;4.474;2023-03-19T08:11:54;58.75;;;15.75;;
72611;SDS011;60655;52.182;4.474;2023-03-19T08:13:55;57.40;;;14.05;;
72611;SDS011;60655;52.182;4.474;2023-03-19T08:15:56;60.33;;;16.58;;
72611;SDS011;60655;52.182;4.474;2023-03-19T08:17:57;64.00;;;17.98;;
72611;SDS011;60655;52.182;4.474;2023-03-19T08:19:59;58.35;;;14.20;;
72611;SDS011;60655;52.182;4.474;2023-03-19T08:22:00;55.00;;;15.45;;
72611;SDS011;60655;52.182;4.474;2023-03-19T08:24:01;59.95;;;15.88;;
72611;SDS011;60655;52.182;4.474;2023-03-19T08:26:02;66.40;;;17.67;;
72611;SDS011;60655;52.182;4.474;2023-03-19T08:28:04;50.00;;;14.48;;
72611;SDS011;60655;52.182;4.474;2023-03-19T08:30:05;64.78;;;17.33;;
72611;SDS011;60655;52.182;4.474;2023-03-19T08:32:08;56.85;;;15.30;;
72611;SDS011;60655;52.182;4.474;2023-03-19T08:34:09;56.80;;;15.25;;
72611;SDS011;60655;52.182;4.474;2023-03-19T08:36:11;55.03;;;16.25;;
72611;SDS011;60655;52.182;4.474;2023-03-19T08:38:13;70.60;;;17.83;;
72611;SDS011;60655;52.182;4.474;2023-03-19T08:40:14;49.75;;;15.25;;
72611;SDS011;60655;52.182;4.474;2023-03-19T08:42:15;50.05;;;14.60;;
72611;SDS011;60655;52.182;4.474;2023-03-19T08:44:16;64.40;;;16.50;;
72611;SDS011;60655;52.182;4.474;2023-03-19T08:46:17;62.92;;;17.35;;
72611;SDS011;60655;52.182;4.474;2023-03-19T08:48:18;54.45;;;15.13;;
72611;SDS011;60655;52.182;4.474;2023-03-19T08:50:19;50.28;;;15.13;;
72611;SDS011;60655;52.182;4.474;2023-03-19T08:52:21;62.78;;;16.42;;
72611;SDS011;60655;52.182;4.474;2023-03-19T08:54:22;49.40;;;15.18;;
72611;SDS011;60655;52.182;4.474;2023-03-19T08:56:23;70.82;;;17.80;;
72611;SDS011;60655;52.182;4.474;2023-03-19T08:58:24;49.53;;;13.35;;
72611;SDS011;60655;52.182;4.474;2023-03-19T09:00:26;55.33;;;16.10;;
72611;SDS011;60655;52.182;4.474;2023-03-19T09:02:27;56.10;;;17.42;;
72611;SDS011;60655;52.182;4.474;2023-03-19T09:04:28;59.63;;;17.83;;
72611;SDS011;60655;52.182;4.474;2023-03-19T09:06:29;54.80;;;16.63;;
72611;SDS011;60655;52.182;4.474;2023-03-19T09:08:31;60.88;;;17.40;;
72611;SDS011;60655;52.182;4.474;2023-03-19T09:10:32;62.45;;;16.88;;
72611;SDS011;60655;52.182;4.474;2023-03-19T09:12:33;49.85;;;15.63;;
72611;SDS011;60655;52.182;4.474;2023-03-19T09:14:34;57.85;;;16.00;;
72611;SDS011;60655;52.182;4.474;2023-03-19T09:16:36;57.13;;;16.77;;
72611;SDS011;60655;52.182;4.474;2023-03-19T09:18:37;57.10;;;16.33;;
72611;SDS011;60655;52.182;4.474;2023-03-19T09:20:38;65.60;;;17.10;;
72611;SDS011;60655;52.182;4.474;2023-03-19T09:22:39;60.08;;;18.23;;
72611;SDS011;60655;52.182;4.474;2023-03-19T09:24:40;53.45;;;16.25;;
72611;SDS011;60655;52.182;4.474;2023-03-19T09:26:41;49.90;;;15.65;;
72611;SDS011;60655;52.182;4.474;2023-03-19T09:28:42;52.83;;;16.80;;
72611;SDS011;60655;52.182;4.474;2023-03-19T09:30:46;53.72;;;15.75;;
72611;SDS011;60655;52.182;4.474;2023-03-19T09:32:48;51.28;;;15.18;;
72611;SDS011;60655;52.182;4.474;2023-03-19T09:34:49;50.88;;;15.18;;
72611;SDS011;60655;52.182;4.474;2023-03-19T09:36:50;52.60;;;15.55;;
72611;SDS011;60655;52.182;4.474;2023-03-19T09:38:51;53.00;;;16.75;;
72611;SDS011;60655;52.182;4.474;2023-03-19T09:41:16;42.60;;;14.48;;
72611;SDS011;60655;52.182;4.474;2023-03-19T09:45:30;53.42;;;18.33;;
72611;SDS011;60655;52.182;4.474;2023-03-19T09:47:32;48.53;;;17.15;;
72611;SDS011;60655;52.182;4.474;2023-03-19T09:49:38;53.22;;;16.13;;
72611;SDS011;60655;52.182;4.474;2023-03-19T09:51:47;50.78;;;15.20;;
72611;SDS011;60655;52.182;4.474;2023-03-19T09:53:55;57.20;;;19.23;;
72611;SDS011;60655;52.182;4.474;2023-03-19T09:56:00;49.83;;;16.65;;
72611;SDS011;60655;52.182;4.474;2023-03-19T09:58:08;65.05;;;19.15;;
72611;SDS011;60655;52.182;4.474;2023-03-19T10:00:20;62.53;;;17.38;;
72611;SDS011;60655;52.182;4.474;2023-03-19T10:07:05;54.97;;;18.50;;
72611;SDS011;60655;52.182;4.474;2023-03-19T10:11:34;51.30;;;16.70;;
72611;SDS011;60655;52.182;4.474;2023-03-19T10:13:52;56.38;;;17.25;;
72611;SDS011;60655;52.182;4.474;2023-03-19T10:16:05;48.35;;;14.07;;
72611;SDS011;60655;52.182;4.474;2023-03-19T10:18:20;47.17;;;14.05;;
72611;SDS011;60655;52.182;4.474;2023-03-19T10:20:45;46.45;;;14.07;;
72611;SDS011;60655;52.182;4.474;2023-03-19T10:22:58;41.53;;;12.07;;
72611;SDS011;60655;52.182;4.474;2023-03-19T10:25:24;33.20;;;11.45;;
72611;SDS011;60655;52.182;4.474;2023-03-19T10:27:29;33.33;;;11.50;;
72611;SDS011;60655;52.182;4.474;2023-03-19T10:29:29;31.45;;;10.98;;
72611;SDS011;60655;52.182;4.474;2023-03-19T10:36:34;39.45;;;12.50;;
72611;SDS011;60655;52.182;4.474;2023-03-19T10:38:39;35.10;;;12.25;;
72611;SDS011;60655;52.182;4.474;2023-03-19T10:40:43;33.78;;;11.93;;
72611;SDS011;60655;52.182;4.474;2023-03-19T10:43:17;35.92;;;12.07;;
72611;SDS011;60655;52.182;4.474;2023-03-19T10:47:34;35.72;;;11.95;;
72611;SDS011;60655;52.182;4.474;2023-03-19T10:49:38;35.38;;;12.23;;
72611;SDS011;60655;52.182;4.474;2023-03-19T10:51:41;35.67;;;11.65;;
72611;SDS011;60655;52.182;4.474;2023-03-19T10:53:44;36.10;;;11.00;;
72611;SDS011;60655;52.182;4.474;2023-03-19T10:55:47;34.03;;;11.65;;
72611;SDS011;60655;52.182;4.474;2023-03-19T10:57:55;27.13;;;9.82;;
72611;SDS011;60655;52.182;4.474;2023-03-19T11:00:04;30.23;;;10.20;;
72611;SDS011;60655;52.182;4.474;2023-03-19T11:02:19;28.70;;;10.07;;
72611;SDS011;60655;52.182;4.474;2023-03-19T11:04:23;29.90;;;9.27;;
72611;SDS011;60655;52.182;4.474;2023-03-19T11:06:27;26.92;;;10.10;;
72611;SDS011;60655;52.182;4.474;2023-03-19T11:08:33;26.02;;;9.82;;
72611;SDS011;60655;52.182;4.474;2023-03-19T11:10:37;29.27;;;9.48;;
72611;SDS011;60655;52.182;4.474;2023-03-19T11:12:56;25.27;;;9.50;;
72611;SDS011;60655;52.182;4.474;2023-03-19T11:15:19;29.40;;;10.13;;
72611;SDS011;60655;52.182;4.474;2023-03-19T11:19:26;25.95;;;10.55;;
72611;SDS011;60655;52.182;4.474;2023-03-19T11:21:32;34.90;;;10.70;;
72611;SDS011;60655;52.182;4.474;2023-03-19T11:23:40;32.97;;;10.63;;
72611;SDS011;60655;52.182;4.474;2023-03-19T11:25:51;28.77;;;10.18;;
72611;SDS011;60655;52.182;4.474;2023-03-19T11:27:57;29.10;;;10.82;;
72611;SDS011;60655;52.182;4.474;2023-03-19T11:30:16;32.78;;;10.93;;
72611;SDS011;60655;52.182;4.474;2023-03-19T11:34:34;32.45;;;11.90;;
72611;SDS011;60655;52.182;4.474;2023-03-19T11:44:04;30.35;;;9.85;;
72611;SDS011;60655;52.182;4.474;2023-03-19T11:46:25;28.42;;;10.68;;
72611;SDS011;60655;52.182;4.474;2023-03-19T11:53:16;27.33;;;9.57;;
72611;SDS011;60655;52.182;4.474;2023-03-19T11:58:02;32.42;;;11.80;;
72611;SDS011;60655;52.182;4.474;2023-03-19T12:09:46;30.30;;;12.27;;
72611;SDS011;60655;52.182;4.474;2023-03-19T12:23:04;28.38;;;9.95;;
72611;SDS011;60655;52.182;4.474;2023-03-19T12:27:29;28.98;;;9.48;;
72611;SDS011;60655;52.182;4.474;2023-03-19T12:32:09;30.95;;;8.57;;
72611;SDS011;60655;52.182;4.474;2023-03-19T12:36:36;38.20;;;10.68;;
72611;SDS011;60655;52.182;4.474;2023-03-19T12:38:50;33.10;;;10.00;;
72611;SDS011;60655;52.182;4.474;2023-03-19T12:40:58;32.88;;;9.77;;
72611;SDS011;60655;52.182;4.474;2023-03-19T12:43:10;30.27;;;9.25;;
72611;SDS011;60655;52.182;4.474;2023-03-19T12:45:28;28.70;;;8.35;;
72611;SDS011;60655;52.182;4.474;2023-03-19T12:47:35;35.67;;;9.35;;
72611;SDS011;60655;52.182;4.474;2023-03-19T12:49:41;24.60;;;8.55;;
72611;SDS011;60655;52.182;4.474;2023-03-19T12:53:58;27.60;;;8.80;;
72611;SDS011;60655;52.182;4.474;2023-03-19T12:56:03;26.42;;;8.60;;
72611;SDS011;60655;52.182;4.474;2023-03-19T13:00:38;37.03;;;9.88;;
72611;SDS011;60655;52.182;4.474;2023-03-19T13:07:23;29.95;;;9.40;;
72611;SDS011;60655;52.182;4.474;2023-03-19T13:12:19;26.83;;;8.25;;
72611;SDS011;60655;52.182;4.474;2023-03-19T13:14:35;31.27;;;9.48;;
72611;SDS011;60655;52.182;4.474;2023-03-19T13:17:53;26.17;;;8.63;;
72611;SDS011;60655;52.182;4.474;2023-03-19T13:19:44;23.75;;;7.70;;
72611;SDS011;60655;52.182;4.474;2023-03-19T13:21:48;24.60;;;8.27;;
72611;SDS011;60655;52.182;4.474;2023-03-19T13:24:01;22.73;;;7.63;;
72611;SDS011;60655;52.182;4.474;2023-03-19T13:26:09;28.55;;;8.25;;
72611;SDS011;60655;52.182;4.474;2023-03-19T13:28:17;20.73;;;7.57;;
72611;SDS011;60655;52.182;4.474;2023-03-19T13:30:26;22.15;;;8.52;;